sensor_id;sensor_type;location;lat;lon;timestamp;P1;durP1;ratioP1;P2;durP2;ratioP2
19414;SDS011;9843;48.882;12.592;2022-10-31T00:01:42;26.20;;;19.43;;
19414;SDS011;9843;48.882;12.592;2022-10-31T00:04:10;25.70;;;19.67;;
19414;SDS011;9843;48.882;12.592;2022-10-31T00:06:37;27.30;;;20.23;;
19414;SDS011;9843;48.882;12.592;2022-10-31T00:09:04;22.07;;;14.67;;
19414;SDS011;9843;48.882;12.592;2022-10-31T00:11:32;24.77;;;17.63;;
19414;SDS011;9843;48.882;12.592;2022-10-31T00:13:59;21.77;;;16.30;;
19414;SDS011;9843;48.882;12.592;2022-10-31T00:16:26;21.33;;;15.73;;
19414;SDS011;9843;48.882;12.592;2022-10-31T00:18:54;40.13;;;16.77;;
19414;SDS011;9843;48.882;12.592;2022-10-31T00:21:23;24.73;;;18.40;;
19414;SDS011;9843;48.882;12.592;2022-10-31T00:23:50;27.93;;;19.27;;
19414;SDS011;9843;48.882;12.592;2022-10-31T00:26:18;29.00;;;17.10;;
19414;SDS011;9843;48.882;12.592;2022-10-31T00:28:46;36.07;;;15.53;;
19414;SDS011;9843;48.882;12.592;2022-10-31T00:31:13;21.27;;;15.43;;
19414;SDS011;9843;48.882;12.592;2022-10-31T00:33:40;34.07;;;16.43;;
19414;SDS011;9843;48.882;12.592;2022-10-31T00:36:10;19.53;;;13.87;;
19414;SDS011;9843;48.882;12.592;2022-10-31T00:38:38;17.77;;;13.40;;
19414;SDS011;9843;48.882;12.592;2022-10-31T00:41:05;16.33;;;12.03;;
19414;SDS011;9843;48.882;12.592;2022-10-31T00:43:31;15.33;;;11.63;;
19414;SDS011;9843;48.882;12.592;2022-10-31T00:46:00;13.63;;;11.33;;
19414;SDS011;9843;48.882;12.592;2022-10-31T00:48:26;14.53;;;11.10;;
19414;SDS011;9843;48.882;12.592;2022-10-31T00:50:54;13.37;;;11.97;;
19414;SDS011;9843;48.882;12.592;2022-10-31T00:53:21;16.30;;;11.67;;
19414;SDS011;9843;48.882;12.592;2022-10-31T00:55:47;14.53;;;11.03;;
19414;SDS011;9843;48.882;12.592;2022-10-31T00:58:14;14.67;;;10.87;;
19414;SDS011;9843;48.882;12.592;2022-10-31T01:00:41;18.83;;;10.77;;
19414;SDS011;9843;48.882;12.592;2022-10-31T01:03:10;14.00;;;10.90;;
19414;SDS011;9843;48.882;12.592;2022-10-31T01:05:36;14.00;;;10.57;;
19414;SDS011;9843;48.882;12.592;2022-10-31T01:08:03;16.60;;;11.17;;
19414;SDS011;9843;48.882;12.592;2022-10-31T01:10:30;9.77;;;8.40;;
19414;SDS011;9843;48.882;12.592;2022-10-31T01:12:57;15.70;;;10.77;;
19414;SDS011;9843;48.882;12.592;2022-10-31T01:15:24;11.63;;;9.97;;
19414;SDS011;9843;48.882;12.592;2022-10-31T01:17:50;13.83;;;10.63;;
19414;SDS011;9843;48.882;12.592;2022-10-31T01:20:19;16.13;;;10.77;;
19414;SDS011;9843;48.882;12.592;2022-10-31T01:22:46;16.30;;;10.80;;
19414;SDS011;9843;48.882;12.592;2022-10-31T01:25:13;13.37;;;9.90;;
19414;SDS011;9843;48.882;12.592;2022-10-31T01:27:39;11.53;;;9.50;;
19414;SDS011;9843;48.882;12.592;2022-10-31T01:30:06;12.40;;;9.50;;
19414;SDS011;9843;48.882;12.592;2022-10-31T01:32:34;27.73;;;13.23;;
19414;SDS011;9843;48.882;12.592;2022-10-31T01:35:01;26.83;;;12.73;;
19414;SDS011;9843;48.882;12.592;2022-10-31T01:37:31;22.53;;;10.87;;
19414;SDS011;9843;48.882;12.592;2022-10-31T01:40:01;11.73;;;9.57;;
19414;SDS011;9843;48.882;12.592;2022-10-31T01:42:39;31.27;;;12.50;;
19414;SDS011;9843;48.882;12.592;2022-10-31T01:45:11;10.33;;;9.43;;
19414;SDS011;9843;48.882;12.592;2022-10-31T01:47:43;13.33;;;10.47;;
19414;SDS011;9843;48.882;12.592;2022-10-31T01:50:15;14.27;;;12.20;;
19414;SDS011;9843;48.882;12.592;2022-10-31T01:52:48;19.77;;;10.80;;
19414;SDS011;9843;48.882;12.592;2022-10-31T01:55:19;12.70;;;10.30;;
19414;SDS011;9843;48.882;12.592;2022-10-31T01:57:51;11.83;;;10.10;;
19414;SDS011;9843;48.882;12.592;2022-10-31T02:00:20;12.17;;;9.93;;
19414;SDS011;9843;48.882;12.592;2022-10-31T02:02:48;11.20;;;10.10;;
19414;SDS011;9843;48.882;12.592;2022-10-31T02:05:17;13.00;;;11.17;;
19414;SDS011;9843;48.882;12.592;2022-10-31T02:07:51;14.73;;;10.73;;
19414;SDS011;9843;48.882;12.592;2022-10-31T02:10:22;11.03;;;9.93;;
19414;SDS011;9843;48.882;12.592;2022-10-31T02:12:50;14.40;;;11.37;;
19414;SDS011;9843;48.882;12.592;2022-10-31T02:15:18;12.27;;;10.97;;
19414;SDS011;9843;48.882;12.592;2022-10-31T02:17:45;10.23;;;9.17;;
19414;SDS011;9843;48.882;12.592;2022-10-31T02:20:14;12.87;;;11.57;;
19414;SDS011;9843;48.882;12.592;2022-10-31T02:22:53;10.23;;;9.13;;
19414;SDS011;9843;48.882;12.592;2022-10-31T02:26:03;17.10;;;9.67;;
19414;SDS011;9843;48.882;12.592;2022-10-31T02:28:40;11.57;;;8.77;;
19414;SDS011;9843;48.882;12.592;2022-10-31T02:31:23;12.40;;;10.40;;
19414;SDS011;9843;48.882;12.592;2022-10-31T02:33:57;10.77;;;7.47;;
19414;SDS011;9843;48.882;12.592;2022-10-31T02:36:28;16.53;;;10.20;;
19414;SDS011;9843;48.882;12.592;2022-10-31T02:39:00;15.13;;;9.30;;
19414;SDS011;9843;48.882;12.592;2022-10-31T02:41:32;7.87;;;7.13;;
19414;SDS011;9843;48.882;12.592;2022-10-31T02:44:07;26.33;;;9.90;;
19414;SDS011;9843;48.882;12.592;2022-10-31T02:46:39;21.00;;;10.10;;
19414;SDS011;9843;48.882;12.592;2022-10-31T02:49:11;38.13;;;11.30;;
19414;SDS011;9843;48.882;12.592;2022-10-31T02:51:43;51.77;;;10.80;;
19414;SDS011;9843;48.882;12.592;2022-10-31T02:54:17;38.27;;;11.23;;
19414;SDS011;9843;48.882;12.592;2022-10-31T02:56:45;35.73;;;9.63;;
19414;SDS011;9843;48.882;12.592;2022-10-31T02:59:12;37.90;;;10.10;;
19414;SDS011;9843;48.882;12.592;2022-10-31T03:01:50;46.23;;;10.47;;
19414;SDS011;9843;48.882;12.592;2022-10-31T03:07:24;25.10;;;9.90;;
19414;SDS011;9843;48.882;12.592;2022-10-31T03:10:03;31.43;;;11.10;;
19414;SDS011;9843;48.882;12.592;2022-10-31T03:12:37;32.17;;;10.37;;
19414;SDS011;9843;48.882;12.592;2022-10-31T03:15:09;50.60;;;10.97;;
19414;SDS011;9843;48.882;12.592;2022-10-31T03:17:42;16.07;;;9.87;;
19414;SDS011;9843;48.882;12.592;2022-10-31T03:20:17;10.90;;;8.27;;
19414;SDS011;9843;48.882;12.592;2022-10-31T03:22:47;8.97;;;7.10;;
19414;SDS011;9843;48.882;12.592;2022-10-31T03:25:14;9.73;;;6.67;;
19414;SDS011;9843;48.882;12.592;2022-10-31T03:27:42;13.40;;;8.47;;
19414;SDS011;9843;48.882;12.592;2022-10-31T03:30:10;10.10;;;6.97;;
19414;SDS011;9843;48.882;12.592;2022-10-31T03:32:39;9.33;;;8.33;;
19414;SDS011;9843;48.882;12.592;2022-10-31T03:35:10;9.73;;;8.17;;
19414;SDS011;9843;48.882;12.592;2022-10-31T03:37:40;9.50;;;8.07;;
19414;SDS011;9843;48.882;12.592;2022-10-31T03:40:08;19.67;;;8.77;;
19414;SDS011;9843;48.882;12.592;2022-10-31T03:42:38;7.77;;;6.57;;
19414;SDS011;9843;48.882;12.592;2022-10-31T03:45:07;7.57;;;6.87;;
19414;SDS011;9843;48.882;12.592;2022-10-31T03:47:36;8.13;;;7.33;;
19414;SDS011;9843;48.882;12.592;2022-10-31T03:50:06;8.50;;;7.63;;
19414;SDS011;9843;48.882;12.592;2022-10-31T03:52:35;5.93;;;5.43;;
19414;SDS011;9843;48.882;12.592;2022-10-31T03:55:08;6.93;;;6.37;;
19414;SDS011;9843;48.882;12.592;2022-10-31T03:57:41;8.87;;;6.57;;
19414;SDS011;9843;48.882;12.592;2022-10-31T04:00:10;6.70;;;6.10;;
19414;SDS011;9843;48.882;12.592;2022-10-31T04:02:40;8.13;;;7.43;;
19414;SDS011;9843;48.882;12.592;2022-10-31T04:05:11;7.13;;;6.60;;
19414;SDS011;9843;48.882;12.592;2022-10-31T04:07:40;7.93;;;7.17;;
19414;SDS011;9843;48.882;12.592;2022-10-31T04:10:11;8.07;;;7.43;;
19414;SDS011;9843;48.882;12.592;2022-10-31T04:12:40;8.17;;;7.40;;
19414;SDS011;9843;48.882;12.592;2022-10-31T04:15:10;9.00;;;8.20;;
19414;SDS011;9843;48.882;12.592;2022-10-31T04:17:38;12.77;;;7.97;;
19414;SDS011;9843;48.882;12.592;2022-10-31T04:20:07;10.53;;;9.47;;
19414;SDS011;9843;48.882;12.592;2022-10-31T04:22:36;10.90;;;8.93;;
19414;SDS011;9843;48.882;12.592;2022-10-31T04:25:03;7.70;;;7.10;;
19414;SDS011;9843;48.882;12.592;2022-10-31T04:27:31;7.53;;;6.93;;
19414;SDS011;9843;48.882;12.592;2022-10-31T04:29:58;7.80;;;7.00;;
19414;SDS011;9843;48.882;12.592;2022-10-31T04:32:25;6.80;;;6.20;;
19414;SDS011;9843;48.882;12.592;2022-10-31T04:34:52;8.63;;;7.83;;
19414;SDS011;9843;48.882;12.592;2022-10-31T04:37:19;8.93;;;8.13;;
19414;SDS011;9843;48.882;12.592;2022-10-31T04:39:47;8.80;;;7.40;;
19414;SDS011;9843;48.882;12.592;2022-10-31T04:42:14;24.00;;;8.97;;
19414;SDS011;9843;48.882;12.592;2022-10-31T04:44:41;9.60;;;7.90;;
19414;SDS011;9843;48.882;12.592;2022-10-31T04:47:08;8.37;;;7.40;;
19414;SDS011;9843;48.882;12.592;2022-10-31T04:49:35;8.93;;;8.10;;
19414;SDS011;9843;48.882;12.592;2022-10-31T04:52:01;11.17;;;8.23;;
19414;SDS011;9843;48.882;12.592;2022-10-31T04:54:28;8.47;;;7.70;;
19414;SDS011;9843;48.882;12.592;2022-10-31T04:56:57;21.70;;;8.07;;
19414;SDS011;9843;48.882;12.592;2022-10-31T04:59:24;6.87;;;6.17;;
19414;SDS011;9843;48.882;12.592;2022-10-31T05:01:51;11.43;;;6.87;;
19414;SDS011;9843;48.882;12.592;2022-10-31T05:04:18;24.17;;;9.23;;
19414;SDS011;9843;48.882;12.592;2022-10-31T05:06:45;7.80;;;7.10;;
19414;SDS011;9843;48.882;12.592;2022-10-31T05:09:11;17.17;;;8.30;;
19414;SDS011;9843;48.882;12.592;2022-10-31T05:11:38;12.63;;;7.60;;
19414;SDS011;9843;48.882;12.592;2022-10-31T05:14:06;11.43;;;7.00;;
19414;SDS011;9843;48.882;12.592;2022-10-31T05:16:33;21.10;;;7.17;;
19414;SDS011;9843;48.882;12.592;2022-10-31T05:19:00;7.17;;;6.40;;
19414;SDS011;9843;48.882;12.592;2022-10-31T05:21:27;10.50;;;8.93;;
19414;SDS011;9843;48.882;12.592;2022-10-31T05:23:54;9.20;;;8.40;;
19414;SDS011;9843;48.882;12.592;2022-10-31T05:26:20;9.37;;;8.37;;
19414;SDS011;9843;48.882;12.592;2022-10-31T05:28:47;8.93;;;8.13;;
19414;SDS011;9843;48.882;12.592;2022-10-31T05:31:16;7.00;;;6.50;;
19414;SDS011;9843;48.882;12.592;2022-10-31T05:33:42;9.83;;;7.67;;
19414;SDS011;9843;48.882;12.592;2022-10-31T05:36:09;6.67;;;6.07;;
19414;SDS011;9843;48.882;12.592;2022-10-31T05:38:37;8.97;;;8.07;;
19414;SDS011;9843;48.882;12.592;2022-10-31T05:41:03;7.23;;;6.63;;
19414;SDS011;9843;48.882;12.592;2022-10-31T05:43:31;7.70;;;7.10;;
19414;SDS011;9843;48.882;12.592;2022-10-31T05:45:57;7.37;;;6.73;;
19414;SDS011;9843;48.882;12.592;2022-10-31T05:48:25;9.80;;;7.47;;
19414;SDS011;9843;48.882;12.592;2022-10-31T05:50:52;10.17;;;7.97;;
19414;SDS011;9843;48.882;12.592;2022-10-31T05:53:19;14.37;;;7.60;;
19414;SDS011;9843;48.882;12.592;2022-10-31T05:55:46;8.53;;;7.63;;
19414;SDS011;9843;48.882;12.592;2022-10-31T05:58:12;9.37;;;7.03;;
19414;SDS011;9843;48.882;12.592;2022-10-31T06:00:39;7.93;;;7.27;;
19414;SDS011;9843;48.882;12.592;2022-10-31T06:03:07;16.17;;;8.50;;
19414;SDS011;9843;48.882;12.592;2022-10-31T06:05:36;25.43;;;9.33;;
19414;SDS011;9843;48.882;12.592;2022-10-31T06:08:03;12.50;;;8.70;;
19414;SDS011;9843;48.882;12.592;2022-10-31T06:10:30;9.03;;;7.93;;
19414;SDS011;9843;48.882;12.592;2022-10-31T06:12:57;14.60;;;8.20;;
19414;SDS011;9843;48.882;12.592;2022-10-31T06:15:24;33.30;;;10.67;;
19414;SDS011;9843;48.882;12.592;2022-10-31T06:17:58;16.57;;;10.93;;
19414;SDS011;9843;48.882;12.592;2022-10-31T06:20:26;23.70;;;10.03;;
19414;SDS011;9843;48.882;12.592;2022-10-31T06:22:54;14.70;;;8.90;;
19414;SDS011;9843;48.882;12.592;2022-10-31T06:25:21;21.03;;;9.77;;
19414;SDS011;9843;48.882;12.592;2022-10-31T06:27:48;9.57;;;8.07;;
19414;SDS011;9843;48.882;12.592;2022-10-31T06:30:15;10.63;;;7.70;;
19414;SDS011;9843;48.882;12.592;2022-10-31T06:32:42;21.13;;;8.83;;
19414;SDS011;9843;48.882;12.592;2022-10-31T06:35:09;20.77;;;8.17;;
19414;SDS011;9843;48.882;12.592;2022-10-31T06:37:36;17.23;;;8.07;;
19414;SDS011;9843;48.882;12.592;2022-10-31T06:40:06;8.73;;;7.83;;
19414;SDS011;9843;48.882;12.592;2022-10-31T06:42:33;14.00;;;7.87;;
19414;SDS011;9843;48.882;12.592;2022-10-31T06:45:00;20.20;;;8.77;;
19414;SDS011;9843;48.882;12.592;2022-10-31T06:47:26;12.27;;;8.77;;
19414;SDS011;9843;48.882;12.592;2022-10-31T06:49:53;43.97;;;8.73;;
19414;SDS011;9843;48.882;12.592;2022-10-31T06:52:20;17.73;;;7.20;;
19414;SDS011;9843;48.882;12.592;2022-10-31T06:54:48;11.23;;;7.07;;
19414;SDS011;9843;48.882;12.592;2022-10-31T06:57:17;18.90;;;8.07;;
19414;SDS011;9843;48.882;12.592;2022-10-31T06:59:44;15.20;;;7.30;;
19414;SDS011;9843;48.882;12.592;2022-10-31T07:02:11;25.67;;;8.17;;
19414;SDS011;9843;48.882;12.592;2022-10-31T07:04:38;23.47;;;7.63;;
19414;SDS011;9843;48.882;12.592;2022-10-31T07:07:05;20.37;;;7.63;;
19414;SDS011;9843;48.882;12.592;2022-10-31T07:09:31;17.37;;;7.27;;
19414;SDS011;9843;48.882;12.592;2022-10-31T07:11:59;7.97;;;7.27;;
19414;SDS011;9843;48.882;12.592;2022-10-31T07:14:27;12.67;;;7.80;;
19414;SDS011;9843;48.882;12.592;2022-10-31T07:16:53;8.17;;;6.40;;
19414;SDS011;9843;48.882;12.592;2022-10-31T07:19:20;12.50;;;8.07;;
19414;SDS011;9843;48.882;12.592;2022-10-31T07:21:47;18.50;;;7.27;;
19414;SDS011;9843;48.882;12.592;2022-10-31T07:24:14;9.40;;;7.77;;
19414;SDS011;9843;48.882;12.592;2022-10-31T07:26:40;8.33;;;7.40;;
19414;SDS011;9843;48.882;12.592;2022-10-31T07:29:07;20.40;;;7.47;;
19414;SDS011;9843;48.882;12.592;2022-10-31T07:31:36;11.10;;;6.63;;
19414;SDS011;9843;48.882;12.592;2022-10-31T07:36:29;6.73;;;6.20;;
19414;SDS011;9843;48.882;12.592;2022-10-31T07:38:56;7.00;;;6.30;;
19414;SDS011;9843;48.882;12.592;2022-10-31T07:41:24;14.93;;;6.43;;
19414;SDS011;9843;48.882;12.592;2022-10-31T07:43:51;10.03;;;6.87;;
19414;SDS011;9843;48.882;12.592;2022-10-31T07:46:18;15.70;;;6.50;;
19414;SDS011;9843;48.882;12.592;2022-10-31T07:48:46;17.60;;;5.43;;
19414;SDS011;9843;48.882;12.592;2022-10-31T07:51:13;8.00;;;6.07;;
19414;SDS011;9843;48.882;12.592;2022-10-31T07:53:40;26.97;;;6.53;;
19414;SDS011;9843;48.882;12.592;2022-10-31T07:56:07;38.00;;;7.77;;
19414;SDS011;9843;48.882;12.592;2022-10-31T07:58:33;27.00;;;7.23;;
19414;SDS011;9843;48.882;12.592;2022-10-31T08:01:00;48.83;;;8.07;;
19414;SDS011;9843;48.882;12.592;2022-10-31T08:03:27;60.10;;;9.33;;
19414;SDS011;9843;48.882;12.592;2022-10-31T08:05:55;23.07;;;7.90;;
19414;SDS011;9843;48.882;12.592;2022-10-31T08:08:22;9.47;;;6.03;;
19414;SDS011;9843;48.882;12.592;2022-10-31T08:10:52;19.03;;;7.33;;
19414;SDS011;9843;48.882;12.592;2022-10-31T08:13:19;8.47;;;6.10;;
19414;SDS011;9843;48.882;12.592;2022-10-31T08:15:46;34.70;;;8.87;;
19414;SDS011;9843;48.882;12.592;2022-10-31T08:18:15;7.37;;;6.13;;
19414;SDS011;9843;48.882;12.592;2022-10-31T08:20:42;11.47;;;6.03;;
19414;SDS011;9843;48.882;12.592;2022-10-31T08:23:11;18.87;;;6.97;;
19414;SDS011;9843;48.882;12.592;2022-10-31T08:25:38;14.47;;;6.83;;
19414;SDS011;9843;48.882;12.592;2022-10-31T08:28:06;7.70;;;6.80;;
19414;SDS011;9843;48.882;12.592;2022-10-31T08:30:40;24.80;;;7.47;;
19414;SDS011;9843;48.882;12.592;2022-10-31T08:33:09;15.10;;;6.83;;
19414;SDS011;9843;48.882;12.592;2022-10-31T08:35:37;6.57;;;5.97;;
19414;SDS011;9843;48.882;12.592;2022-10-31T08:38:04;35.07;;;8.23;;
19414;SDS011;9843;48.882;12.592;2022-10-31T08:40:32;25.93;;;8.53;;
19414;SDS011;9843;48.882;12.592;2022-10-31T08:43:00;7.57;;;6.47;;
19414;SDS011;9843;48.882;12.592;2022-10-31T08:45:28;10.77;;;7.03;;
19414;SDS011;9843;48.882;12.592;2022-10-31T08:47:57;9.67;;;7.07;;
19414;SDS011;9843;48.882;12.592;2022-10-31T08:50:24;7.80;;;6.17;;
19414;SDS011;9843;48.882;12.592;2022-10-31T08:52:52;9.83;;;6.77;;
19414;SDS011;9843;48.882;12.592;2022-10-31T08:55:18;40.70;;;8.33;;
19414;SDS011;9843;48.882;12.592;2022-10-31T08:57:47;12.33;;;7.77;;
19414;SDS011;9843;48.882;12.592;2022-10-31T09:00:13;29.37;;;10.13;;
19414;SDS011;9843;48.882;12.592;2022-10-31T09:02:40;12.00;;;7.80;;
19414;SDS011;9843;48.882;12.592;2022-10-31T09:05:07;16.33;;;9.13;;
19414;SDS011;9843;48.882;12.592;2022-10-31T09:07:34;12.13;;;8.33;;
19414;SDS011;9843;48.882;12.592;2022-10-31T09:10:01;13.10;;;8.17;;
19414;SDS011;9843;48.882;12.592;2022-10-31T09:12:28;17.43;;;8.10;;
19414;SDS011;9843;48.882;12.592;2022-10-31T09:14:56;13.20;;;7.87;;
19414;SDS011;9843;48.882;12.592;2022-10-31T09:17:22;31.03;;;10.50;;
19414;SDS011;9843;48.882;12.592;2022-10-31T09:19:51;29.37;;;9.73;;
19414;SDS011;9843;48.882;12.592;2022-10-31T09:22:18;15.10;;;8.80;;
19414;SDS011;9843;48.882;12.592;2022-10-31T09:24:45;35.87;;;10.97;;
19414;SDS011;9843;48.882;12.592;2022-10-31T09:27:11;54.00;;;13.37;;
19414;SDS011;9843;48.882;12.592;2022-10-31T09:29:38;16.93;;;10.60;;
19414;SDS011;9843;48.882;12.592;2022-10-31T09:32:06;36.83;;;12.53;;
19414;SDS011;9843;48.882;12.592;2022-10-31T09:34:33;16.07;;;10.77;;
19414;SDS011;9843;48.882;12.592;2022-10-31T09:37:00;41.67;;;12.03;;
19414;SDS011;9843;48.882;12.592;2022-10-31T09:39:27;31.33;;;11.33;;
19414;SDS011;9843;48.882;12.592;2022-10-31T09:42:00;11.53;;;10.13;;
19414;SDS011;9843;48.882;12.592;2022-10-31T09:44:42;25.00;;;11.13;;
19414;SDS011;9843;48.882;12.592;2022-10-31T09:47:14;12.47;;;9.90;;
19414;SDS011;9843;48.882;12.592;2022-10-31T09:49:51;34.40;;;12.80;;
19414;SDS011;9843;48.882;12.592;2022-10-31T09:52:22;49.37;;;14.10;;
19414;SDS011;9843;48.882;12.592;2022-10-31T09:54:52;17.77;;;11.43;;
19414;SDS011;9843;48.882;12.592;2022-10-31T09:57:22;16.30;;;12.03;;
19414;SDS011;9843;48.882;12.592;2022-10-31T09:59:51;33.97;;;17.30;;
19414;SDS011;9843;48.882;12.592;2022-10-31T10:02:21;25.47;;;13.50;;
19414;SDS011;9843;48.882;12.592;2022-10-31T10:04:51;28.43;;;14.43;;
19414;SDS011;9843;48.882;12.592;2022-10-31T10:07:22;61.00;;;16.30;;
19414;SDS011;9843;48.882;12.592;2022-10-31T10:09:52;23.57;;;17.03;;
19414;SDS011;9843;48.882;12.592;2022-10-31T10:12:36;33.73;;;16.07;;
19414;SDS011;9843;48.882;12.592;2022-10-31T10:15:32;23.43;;;12.97;;
19414;SDS011;9843;48.882;12.592;2022-10-31T10:18:08;27.77;;;16.13;;
19414;SDS011;9843;48.882;12.592;2022-10-31T10:20:38;15.80;;;11.53;;
19414;SDS011;9843;48.882;12.592;2022-10-31T10:23:23;26.83;;;18.90;;
19414;SDS011;9843;48.882;12.592;2022-10-31T10:26:01;19.13;;;14.33;;
19414;SDS011;9843;48.882;12.592;2022-10-31T10:28:40;23.13;;;14.97;;
19414;SDS011;9843;48.882;12.592;2022-10-31T10:31:11;22.23;;;14.13;;
19414;SDS011;9843;48.882;12.592;2022-10-31T10:33:43;21.07;;;14.30;;
19414;SDS011;9843;48.882;12.592;2022-10-31T10:36:17;18.73;;;14.17;;
19414;SDS011;9843;48.882;12.592;2022-10-31T10:38:50;26.10;;;17.47;;
19414;SDS011;9843;48.882;12.592;2022-10-31T10:41:19;28.03;;;15.57;;
19414;SDS011;9843;48.882;12.592;2022-10-31T10:43:48;19.60;;;14.73;;
19414;SDS011;9843;48.882;12.592;2022-10-31T10:46:18;21.30;;;14.53;;
19414;SDS011;9843;48.882;12.592;2022-10-31T10:49:12;21.43;;;14.83;;
19414;SDS011;9843;48.882;12.592;2022-10-31T10:51:43;37.67;;;22.57;;
19414;SDS011;9843;48.882;12.592;2022-10-31T10:54:24;22.30;;;17.57;;
19414;SDS011;9843;48.882;12.592;2022-10-31T10:56:58;22.87;;;15.73;;
19414;SDS011;9843;48.882;12.592;2022-10-31T10:59:27;21.40;;;17.70;;
19414;SDS011;9843;48.882;12.592;2022-10-31T11:01:55;22.60;;;16.47;;
19414;SDS011;9843;48.882;12.592;2022-10-31T11:04:28;21.23;;;17.07;;
19414;SDS011;9843;48.882;12.592;2022-10-31T11:06:59;30.20;;;19.97;;
19414;SDS011;9843;48.882;12.592;2022-10-31T11:09:26;23.60;;;17.53;;
19414;SDS011;9843;48.882;12.592;2022-10-31T11:11:53;35.47;;;20.57;;
19414;SDS011;9843;48.882;12.592;2022-10-31T11:14:20;26.83;;;16.67;;
19414;SDS011;9843;48.882;12.592;2022-10-31T11:16:48;23.30;;;17.23;;
19414;SDS011;9843;48.882;12.592;2022-10-31T11:19:18;18.80;;;16.43;;
19414;SDS011;9843;48.882;12.592;2022-10-31T11:21:47;20.23;;;15.87;;
19414;SDS011;9843;48.882;12.592;2022-10-31T11:24:15;20.80;;;16.20;;
19414;SDS011;9843;48.882;12.592;2022-10-31T11:26:45;24.33;;;18.37;;
19414;SDS011;9843;48.882;12.592;2022-10-31T11:29:14;25.93;;;19.10;;
19414;SDS011;9843;48.882;12.592;2022-10-31T11:31:41;27.07;;;18.90;;
19414;SDS011;9843;48.882;12.592;2022-10-31T11:34:13;30.53;;;21.10;;
19414;SDS011;9843;48.882;12.592;2022-10-31T11:36:42;22.33;;;18.17;;
19414;SDS011;9843;48.882;12.592;2022-10-31T11:39:15;23.37;;;18.03;;
19414;SDS011;9843;48.882;12.592;2022-10-31T11:41:44;22.23;;;18.10;;
19414;SDS011;9843;48.882;12.592;2022-10-31T11:44:12;30.13;;;21.40;;
19414;SDS011;9843;48.882;12.592;2022-10-31T11:46:40;23.97;;;19.83;;
19414;SDS011;9843;48.882;12.592;2022-10-31T11:49:11;23.10;;;18.07;;
19414;SDS011;9843;48.882;12.592;2022-10-31T11:51:40;25.53;;;17.67;;
19414;SDS011;9843;48.882;12.592;2022-10-31T11:54:18;24.03;;;19.77;;
19414;SDS011;9843;48.882;12.592;2022-10-31T11:56:46;31.10;;;19.07;;
19414;SDS011;9843;48.882;12.592;2022-10-31T11:59:15;24.77;;;19.80;;
19414;SDS011;9843;48.882;12.592;2022-10-31T12:01:46;21.87;;;17.63;;
19414;SDS011;9843;48.882;12.592;2022-10-31T12:04:13;29.07;;;19.23;;
19414;SDS011;9843;48.882;12.592;2022-10-31T12:06:42;28.53;;;20.57;;
19414;SDS011;9843;48.882;12.592;2022-10-31T12:09:14;29.50;;;20.43;;
19414;SDS011;9843;48.882;12.592;2022-10-31T12:11:46;29.37;;;20.90;;
19414;SDS011;9843;48.882;12.592;2022-10-31T12:14:22;29.13;;;20.87;;
19414;SDS011;9843;48.882;12.592;2022-10-31T12:16:51;22.07;;;18.07;;
19414;SDS011;9843;48.882;12.592;2022-10-31T12:19:25;23.37;;;18.37;;
19414;SDS011;9843;48.882;12.592;2022-10-31T12:22:00;22.77;;;18.67;;
19414;SDS011;9843;48.882;12.592;2022-10-31T12:24:35;23.47;;;19.10;;
19414;SDS011;9843;48.882;12.592;2022-10-31T12:27:13;27.17;;;19.63;;
19414;SDS011;9843;48.882;12.592;2022-10-31T12:29:50;22.23;;;17.90;;
19414;SDS011;9843;48.882;12.592;2022-10-31T12:32:25;22.47;;;18.90;;
19414;SDS011;9843;48.882;12.592;2022-10-31T12:34:59;24.93;;;19.77;;
19414;SDS011;9843;48.882;12.592;2022-10-31T12:37:33;23.93;;;19.53;;
19414;SDS011;9843;48.882;12.592;2022-10-31T12:40:06;22.27;;;19.47;;
19414;SDS011;9843;48.882;12.592;2022-10-31T12:42:40;21.83;;;18.70;;
19414;SDS011;9843;48.882;12.592;2022-10-31T12:45:18;22.53;;;17.97;;
19414;SDS011;9843;48.882;12.592;2022-10-31T12:47:54;21.77;;;19.50;;
19414;SDS011;9843;48.882;12.592;2022-10-31T12:50:29;26.13;;;20.47;;
19414;SDS011;9843;48.882;12.592;2022-10-31T12:53:03;24.03;;;17.27;;
19414;SDS011;9843;48.882;12.592;2022-10-31T12:55:38;29.17;;;18.73;;
19414;SDS011;9843;48.882;12.592;2022-10-31T12:58:09;23.20;;;17.67;;
19414;SDS011;9843;48.882;12.592;2022-10-31T13:00:38;19.37;;;16.00;;
19414;SDS011;9843;48.882;12.592;2022-10-31T13:03:13;25.50;;;19.23;;
19414;SDS011;9843;48.882;12.592;2022-10-31T13:05:41;18.70;;;16.63;;
19414;SDS011;9843;48.882;12.592;2022-10-31T13:08:10;24.80;;;17.70;;
19414;SDS011;9843;48.882;12.592;2022-10-31T13:10:39;24.53;;;16.60;;
19414;SDS011;9843;48.882;12.592;2022-10-31T13:13:11;25.73;;;20.13;;
19414;SDS011;9843;48.882;12.592;2022-10-31T13:15:44;22.07;;;18.87;;
19414;SDS011;9843;48.882;12.592;2022-10-31T13:18:13;22.20;;;19.67;;
19414;SDS011;9843;48.882;12.592;2022-10-31T13:20:43;39.80;;;21.87;;
19414;SDS011;9843;48.882;12.592;2022-10-31T13:23:12;28.03;;;20.60;;
19414;SDS011;9843;48.882;12.592;2022-10-31T13:25:42;25.73;;;20.10;;
19414;SDS011;9843;48.882;12.592;2022-10-31T13:28:15;40.70;;;21.50;;
19414;SDS011;9843;48.882;12.592;2022-10-31T13:30:48;22.90;;;19.70;;
19414;SDS011;9843;48.882;12.592;2022-10-31T13:33:16;25.97;;;22.70;;
19414;SDS011;9843;48.882;12.592;2022-10-31T13:35:46;28.70;;;20.53;;
19414;SDS011;9843;48.882;12.592;2022-10-31T13:38:18;31.17;;;22.90;;
19414;SDS011;9843;48.882;12.592;2022-10-31T13:40:49;45.97;;;32.63;;
19414;SDS011;9843;48.882;12.592;2022-10-31T13:43:22;32.53;;;24.57;;
19414;SDS011;9843;48.882;12.592;2022-10-31T13:45:51;33.23;;;25.67;;
19414;SDS011;9843;48.882;12.592;2022-10-31T13:48:28;33.63;;;24.43;;
19414;SDS011;9843;48.882;12.592;2022-10-31T13:50:59;32.17;;;22.83;;
19414;SDS011;9843;48.882;12.592;2022-10-31T13:53:35;33.53;;;23.47;;
19414;SDS011;9843;48.882;12.592;2022-10-31T13:56:03;23.53;;;20.07;;
19414;SDS011;9843;48.882;12.592;2022-10-31T13:58:31;27.77;;;20.27;;
19414;SDS011;9843;48.882;12.592;2022-10-31T14:00:59;21.63;;;19.37;;
19414;SDS011;9843;48.882;12.592;2022-10-31T14:03:28;35.40;;;22.77;;
19414;SDS011;9843;48.882;12.592;2022-10-31T14:05:57;24.23;;;19.73;;
19414;SDS011;9843;48.882;12.592;2022-10-31T14:08:24;30.97;;;23.27;;
19414;SDS011;9843;48.882;12.592;2022-10-31T14:10:51;29.90;;;21.53;;
19414;SDS011;9843;48.882;12.592;2022-10-31T14:13:21;27.80;;;21.53;;
19414;SDS011;9843;48.882;12.592;2022-10-31T14:15:54;24.53;;;19.27;;
19414;SDS011;9843;48.882;12.592;2022-10-31T14:18:23;25.87;;;21.23;;
19414;SDS011;9843;48.882;12.592;2022-10-31T14:20:50;28.10;;;22.70;;
19414;SDS011;9843;48.882;12.592;2022-10-31T14:23:34;31.60;;;22.73;;
19414;SDS011;9843;48.882;12.592;2022-10-31T14:26:16;30.83;;;23.13;;
19414;SDS011;9843;48.882;12.592;2022-10-31T14:28:43;32.07;;;24.30;;
19414;SDS011;9843;48.882;12.592;2022-10-31T14:31:25;33.90;;;24.33;;
19414;SDS011;9843;48.882;12.592;2022-10-31T14:33:53;43.40;;;27.93;;
19414;SDS011;9843;48.882;12.592;2022-10-31T14:36:23;27.20;;;22.27;;
19414;SDS011;9843;48.882;12.592;2022-10-31T14:38:52;32.80;;;22.10;;
19414;SDS011;9843;48.882;12.592;2022-10-31T14:41:31;34.67;;;25.87;;
19414;SDS011;9843;48.882;12.592;2022-10-31T14:44:29;33.30;;;25.07;;
19414;SDS011;9843;48.882;12.592;2022-10-31T14:47:04;31.47;;;27.20;;
19414;SDS011;9843;48.882;12.592;2022-10-31T14:49:37;36.67;;;29.57;;
19414;SDS011;9843;48.882;12.592;2022-10-31T14:52:08;33.33;;;27.60;;